TimeMDT,TemperatureF,Dew PointF,Humidity,Sea Level PressureIn,VisibilityMPH,Wind Direction,Wind SpeedMPH,Gust SpeedMPH,PrecipitationIn,Events,Conditions,WindDirDegrees,DateUTC
12:53 AM,68.0,42.1,39,29.97,10.0,SE,8.1,-,N/A,,Clear,140,2013-07-09 06:53:00
1:53 AM,68.0,41.0,37,29.96,10.0,SE,10.4,-,N/A,,Clear,130,2013-07-09 07:53:00
2:53 AM,68.0,41.0,37,29.97,10.0,SE,9.2,-,N/A,,Clear,130,2013-07-09 08:53:00
3:53 AM,64.9,43.0,45,30.00,10.0,Calm,Calm,-,N/A,,Partly Cloudy,0,2013-07-09 09:53:00
4:36 AM,66.2,42.8,43,30.26,10.0,South,13.8,-,0.00,,Partly Cloudy,170,2013-07-09 10:36:00
4:53 AM,66.9,43.0,42,29.99,10.0,South,9.2,-,0.00,,Clear,190,2013-07-09 10:53:00
5:53 AM,66.0,42.1,42,30.01,10.0,ESE,6.9,-,N/A,,Clear,110,2013-07-09 11:53:00
6:53 AM,68.0,41.0,37,30.01,10.0,ESE,4.6,-,N/A,,Clear,120,2013-07-09 12:53:00
7:53 AM,70.0,45.0,41,30.02,10.0,Calm,Calm,-,N/A,,Clear,0,2013-07-09 13:53:00
8:53 AM,78.1,41.0,27,30.03,10.0,Variable,4.6,-,N/A,,Clear,0,2013-07-09 14:53:00
9:53 AM,82.9,44.1,25,30.02,10.0,Variable,3.5,-,N/A,,Clear,0,2013-07-09 15:53:00
10:53 AM,87.1,45.0,23,30.02,10.0,Calm,Calm,-,N/A,,Clear,0,2013-07-09 16:53:00
11:53 AM,91.0,39.9,17,30.00,10.0,Calm,Calm,-,N/A,,Clear,0,2013-07-09 17:53:00
12:53 PM,91.9,24.1,9,29.99,10.0,East,4.6,-,N/A,,Clear,100,2013-07-09 18:53:00
1:53 PM,96.1,28.9,9,29.96,10.0,NNW,11.5,-,N/A,,Clear,340,2013-07-09 19:53:00
2:53 PM,95.0,30.9,10,29.94,10.0,NNW,8.1,-,N/A,,Clear,340,2013-07-09 20:53:00
3:53 PM,96.1,30.0,10,29.92,10.0,WNW,9.2,-,N/A,,Clear,300,2013-07-09 21:53:00
4:53 PM,96.1,30.9,10,29.90,10.0,North,10.4,-,N/A,,Clear,350,2013-07-09 22:53:00
5:53 PM,93.0,35.1,13,29.90,10.0,NNW,10.4,-,N/A,,Clear,340,2013-07-09 23:53:00
6:53 PM,91.9,36.0,14,29.89,10.0,NNW,9.2,-,N/A,,Clear,330,2013-07-10 00:53:00
7:53 PM,88.0,39.0,18,29.90,10.0,NNW,8.1,-,N/A,,Clear,330,2013-07-10 01:53:00
8:53 PM,84.0,39.0,20,29.89,8.0,Calm,Calm,-,N/A,,Clear,0,2013-07-10 02:53:00
9:53 PM,78.1,46.0,32,29.92,10.0,South,8.1,-,N/A,,Clear,170,2013-07-10 03:53:00
10:53 PM,77.0,42.1,29,29.92,10.0,SE,9.2,-,N/A,,Clear,140,2013-07-10 04:53:00
11:53 PM,73.9,39.0,28,29.91,10.0,SSE,8.1,-,N/A,,Clear,150,2013-07-10 05:53:00